createdAt,value
2023-05-07T00:01:03.974Z,43.62
2023-05-07T00:03:36.240Z,43.71
2023-05-07T00:06:08.873Z,43.78
2023-05-07T00:08:41.098Z,43.83
2023-05-07T00:11:13.355Z,44.02
2023-05-07T00:13:45.579Z,43.98
2023-05-07T00:16:17.896Z,44.12
2023-05-07T00:18:50.332Z,44.27
2023-05-07T00:21:23.400Z,44.25
2023-05-07T00:23:55.805Z,44.39
2023-05-07T00:26:27.992Z,44.48
2023-05-07T00:29:00.187Z,44.61
2023-05-07T00:31:32.503Z,44.78
2023-05-07T00:34:04.787Z,44.99
2023-05-07T00:36:37.199Z,45.18
2023-05-07T00:39:09.913Z,45.28
2023-05-07T00:41:42.187Z,45.34
2023-05-07T00:44:14.499Z,45.35
2023-05-07T00:46:49.925Z,45.61
2023-05-07T00:49:22.687Z,45.61
2023-05-07T00:51:55.145Z,45.78
2023-05-07T00:54:27.548Z,45.94
2023-05-07T00:57:00.152Z,46.03
2023-05-07T00:59:33.106Z,46.14
2023-05-07T01:02:05.743Z,46.16
2023-05-07T01:04:38.907Z,46.24
2023-05-07T01:07:12.080Z,46.30
2023-05-07T01:09:44.482Z,46.44
2023-05-07T01:12:17.443Z,46.49
2023-05-07T01:14:50.904Z,46.51
2023-05-07T01:17:23.289Z,46.63
2023-05-07T01:19:55.888Z,46.90
2023-05-07T01:22:34.782Z,46.99
2023-05-07T01:25:09.290Z,47.12
2023-05-07T01:27:41.762Z,47.22
2023-05-07T01:30:14.884Z,47.38
2023-05-07T01:32:53.361Z,47.46
2023-05-07T01:35:28.061Z,47.63
2023-05-07T01:38:01.073Z,47.63
2023-05-07T01:40:33.559Z,47.74
2023-05-07T01:43:07.477Z,47.87
2023-05-07T01:45:40.286Z,47.82
2023-05-07T01:48:15.184Z,47.82
2023-05-07T01:50:48.676Z,47.90
2023-05-07T01:53:21.067Z,48.02
2023-05-07T01:55:53.210Z,48.12
2023-05-07T01:58:25.530Z,47.98
2023-05-07T02:00:57.726Z,48.08
2023-05-07T02:03:30.204Z,48.14
2023-05-07T02:06:02.435Z,48.19
2023-05-07T02:08:35.128Z,48.27
2023-05-07T02:11:07.592Z,48.32
2023-05-07T02:13:40.249Z,48.33
2023-05-07T02:16:14.835Z,48.47
2023-05-07T02:18:46.969Z,48.37
2023-05-07T02:21:19.210Z,48.35
2023-05-07T02:23:51.723Z,48.42
2023-05-07T02:26:23.916Z,48.38
2023-05-07T02:28:56.213Z,48.32
2023-05-07T02:31:28.624Z,48.34
2023-05-07T02:34:00.904Z,48.35
2023-05-07T02:36:33.348Z,48.30
2023-05-07T02:39:05.570Z,48.30
2023-05-07T02:41:37.879Z,48.34
2023-05-07T02:44:10.284Z,48.52
2023-05-07T02:46:42.675Z,48.48
2023-05-07T02:49:14.929Z,48.62
2023-05-07T02:51:47.424Z,48.75
2023-05-07T02:54:19.769Z,48.81
2023-05-07T02:56:51.984Z,48.79
2023-05-07T02:59:24.376Z,48.81
2023-05-07T03:01:56.888Z,48.80
2023-05-07T03:04:29.165Z,48.95
2023-05-07T03:07:01.606Z,48.98
2023-05-07T03:09:33.976Z,48.97
2023-05-07T03:12:06.327Z,49.00
2023-05-07T03:14:38.618Z,49.21
2023-05-07T03:17:10.811Z,49.29
2023-05-07T03:19:43.049Z,49.21
2023-05-07T03:22:15.363Z,49.31
2023-05-07T03:24:47.721Z,49.46
2023-05-07T03:27:20.161Z,49.43
2023-05-07T03:29:52.399Z,49.50
2023-05-07T03:32:24.885Z,49.51
2023-05-07T03:34:56.958Z,49.58
2023-05-07T03:37:29.416Z,49.56
2023-05-07T03:40:01.701Z,49.46
2023-05-07T03:42:34.080Z,49.60
2023-05-07T03:45:07.418Z,49.66
2023-05-07T03:47:39.733Z,49.76
2023-05-07T03:50:13.533Z,49.51
2023-05-07T03:52:46.301Z,49.26
2023-05-07T03:55:19.107Z,49.13
2023-05-07T03:57:51.468Z,49.17
2023-05-07T04:00:24.195Z,49.15
2023-05-07T04:02:56.561Z,49.08
2023-05-07T04:05:29.760Z,49.02
2023-05-07T04:08:03.487Z,48.98
2023-05-07T04:10:35.730Z,49.02
2023-05-07T04:13:08.011Z,48.96
2023-05-07T04:15:40.784Z,49.00
2023-05-07T04:18:13.033Z,49.02
2023-05-07T04:20:45.566Z,48.71
2023-05-07T04:23:17.943Z,48.69
2023-05-07T04:25:50.448Z,48.69
2023-05-07T04:28:22.767Z,48.75
2023-05-07T04:30:55.191Z,48.70
2023-05-07T04:33:27.450Z,48.69
2023-05-07T04:36:03.787Z,48.56
2023-05-07T04:38:36.256Z,48.61
2023-05-07T04:41:08.973Z,48.60
2023-05-07T04:43:41.191Z,48.36
2023-05-07T04:46:13.546Z,48.47
2023-05-07T04:48:45.911Z,48.26
2023-05-07T04:51:18.276Z,48.25
2023-05-07T04:53:51.627Z,48.25
2023-05-07T04:56:23.906Z,48.16
2023-05-07T04:58:56.141Z,48.08
2023-05-07T05:01:28.585Z,48.06
2023-05-07T05:04:01.781Z,48.07
2023-05-07T05:06:34.116Z,48.04
2023-05-07T05:09:07.005Z,47.97
2023-05-07T05:11:39.224Z,47.93
2023-05-07T05:14:11.621Z,47.78
2023-05-07T05:16:43.890Z,47.71
2023-05-07T05:19:16.293Z,47.63
2023-05-07T05:21:48.648Z,47.50
2023-05-07T05:24:21.177Z,47.42
2023-05-07T05:26:55.661Z,47.36
2023-05-07T05:29:27.918Z,47.27
2023-05-07T05:32:00.521Z,47.15
2023-05-07T05:34:34.206Z,47.00
2023-05-07T05:37:06.442Z,46.87
2023-05-07T05:39:38.649Z,46.83
2023-05-07T05:42:10.907Z,46.71
2023-05-07T05:44:43.153Z,46.62
2023-05-07T05:47:15.443Z,46.54
2023-05-07T05:49:47.606Z,46.44
2023-05-07T05:52:19.915Z,46.42
2023-05-07T05:54:52.208Z,46.41
2023-05-07T05:57:26.004Z,46.29
2023-05-07T05:59:59.272Z,46.24
2023-05-07T06:02:31.777Z,46.07
2023-05-07T06:05:04.253Z,45.88
2023-05-07T06:07:36.833Z,45.97
2023-05-07T06:10:11.028Z,45.75
2023-05-07T06:12:43.921Z,45.59
2023-05-07T06:15:16.319Z,45.60
2023-05-07T06:17:48.702Z,45.42
2023-05-07T06:20:21.359Z,45.16
2023-05-07T06:22:53.574Z,45.07
2023-05-07T06:25:25.979Z,44.96
2023-05-07T06:27:58.250Z,44.70
2023-05-07T06:30:31.049Z,44.27
2023-05-07T06:33:03.326Z,44.28
2023-05-07T06:35:35.661Z,44.11
2023-05-07T06:38:07.840Z,44.40
2023-05-07T06:40:40.150Z,43.81
2023-05-07T06:43:12.370Z,43.61
2023-05-07T06:45:44.908Z,43.49
2023-05-07T06:48:17.004Z,43.10
2023-05-07T06:50:49.338Z,43.18
2023-05-07T06:53:21.722Z,43.13
2023-05-07T06:55:54.167Z,42.91
2023-05-07T06:58:26.400Z,42.55
2023-05-07T07:00:58.765Z,42.30
2023-05-07T07:03:31.210Z,41.90
2023-05-07T07:06:04.449Z,41.74
2023-05-07T07:08:36.959Z,41.56
2023-05-07T07:11:09.369Z,41.30
2023-05-07T07:13:41.747Z,41.09
2023-05-07T07:16:14.386Z,40.64
2023-05-07T07:18:46.766Z,40.41
2023-05-07T07:21:21.731Z,40.28
2023-05-07T07:23:54.013Z,40.28
2023-05-07T07:26:26.377Z,39.82
2023-05-07T07:28:58.725Z,39.76
2023-05-07T07:31:32.114Z,39.56
2023-05-07T07:34:04.263Z,39.39
2023-05-07T07:36:45.685Z,39.04
2023-05-07T07:39:19.067Z,38.90
2023-05-07T07:41:51.178Z,38.86
2023-05-07T07:44:23.429Z,38.58
2023-05-07T07:46:55.712Z,37.91
2023-05-07T07:49:28.985Z,37.71
2023-05-07T07:52:01.808Z,37.19
2023-05-07T07:54:34.109Z,37.10
2023-05-07T07:57:06.536Z,36.90
2023-05-07T07:59:38.837Z,36.79
2023-05-07T08:02:11.381Z,36.57
2023-05-07T08:04:49.026Z,36.72
2023-05-07T08:07:26.895Z,36.21
2023-05-07T08:09:59.048Z,35.94
2023-05-07T08:12:34.165Z,35.74
2023-05-07T08:15:07.352Z,35.69
2023-05-07T08:17:39.795Z,35.72
2023-05-07T08:20:13.817Z,35.51
2023-05-07T08:22:46.543Z,35.01
2023-05-07T08:25:19.024Z,35.11
2023-05-07T08:27:51.153Z,35.17
2023-05-07T08:30:23.684Z,34.93
2023-05-07T08:32:55.839Z,34.68
2023-05-07T08:35:29.193Z,34.54
2023-05-07T08:38:01.475Z,34.43
2023-05-07T08:40:39.147Z,34.06
2023-05-07T08:43:14.992Z,33.91
2023-05-07T08:45:51.937Z,33.83
2023-05-07T08:48:27.906Z,33.63
2023-05-07T08:51:00.395Z,33.29
2023-05-07T08:53:32.950Z,33.34
2023-05-07T08:56:05.984Z,33.10
2023-05-07T08:58:38.203Z,32.98
2023-05-07T09:01:12.451Z,32.90
2023-05-07T09:03:46.516Z,32.42
2023-05-07T09:06:19.010Z,32.47
2023-05-07T09:08:55.739Z,32.39
2023-05-07T09:11:28.272Z,32.30
2023-05-07T09:14:02.646Z,32.19
2023-05-07T09:16:35.089Z,32.12
2023-05-07T09:19:07.361Z,31.91
2023-05-07T09:21:39.565Z,31.89
2023-05-07T09:24:12.104Z,31.78
2023-05-07T09:26:45.047Z,31.74
2023-05-07T09:29:19.498Z,31.70
2023-05-07T09:31:51.838Z,31.43
2023-05-07T09:34:24.517Z,31.27
2023-05-07T09:36:57.782Z,31.28
2023-05-07T09:39:42.873Z,31.36
2023-05-07T09:42:16.350Z,31.23
2023-05-07T09:44:49.340Z,30.98
2023-05-07T09:47:25.984Z,30.95
2023-05-07T09:50:01.980Z,30.77
2023-05-07T09:52:36.487Z,30.70
2023-05-07T09:55:09.850Z,30.80
2023-05-07T09:57:44.349Z,30.55
2023-05-07T10:00:20.405Z,30.62
2023-05-07T10:02:54.651Z,30.64
2023-05-07T10:05:28.455Z,30.36
2023-05-07T10:08:03.988Z,30.32
2023-05-07T10:10:37.889Z,30.22
2023-05-07T10:13:11.961Z,29.99
2023-05-07T10:15:45.916Z,30.20
2023-05-07T10:18:19.296Z,30.21
2023-05-07T10:20:53.583Z,30.05
2023-05-07T10:23:28.772Z,30.02
2023-05-07T10:26:02.418Z,29.92
2023-05-07T10:28:39.218Z,29.84
2023-05-07T10:31:28.486Z,29.71
2023-05-07T10:34:02.089Z,30.09
2023-05-07T10:36:38.260Z,30.00
2023-05-07T10:39:11.986Z,30.13
2023-05-07T10:41:44.416Z,29.69
2023-05-07T10:44:30.120Z,29.98
2023-05-07T10:47:12.323Z,29.88
2023-05-07T10:50:15.422Z,30.08
2023-05-07T10:53:07.700Z,29.87
2023-05-07T10:55:40.037Z,29.81
2023-05-07T10:58:33.141Z,30.18
2023-05-07T11:01:06.253Z,29.54
2023-05-07T11:03:58.557Z,30.09
2023-05-07T11:06:32.814Z,30.26
2023-05-07T11:09:05.327Z,29.84
2023-05-07T11:11:52.483Z,30.09
2023-05-07T11:14:47.202Z,30.00
2023-05-07T11:17:19.448Z,30.26
2023-05-07T11:19:56.717Z,30.34
2023-05-07T11:22:42.037Z,30.20
2023-05-07T11:25:19.588Z,30.42
2023-05-07T11:27:52.929Z,30.70
2023-05-07T11:30:26.038Z,30.61
2023-05-07T11:32:58.600Z,30.64
2023-05-07T11:35:31.792Z,30.57
2023-05-07T11:38:04.583Z,30.66
2023-05-07T11:40:36.808Z,30.71
2023-05-07T11:43:15.810Z,30.70
2023-05-07T11:45:48.749Z,30.92
2023-05-07T11:48:23.377Z,30.81
2023-05-07T11:51:02.012Z,31.03
2023-05-07T11:53:40.087Z,31.05
2023-05-07T11:56:14.292Z,30.95
2023-05-07T11:58:48.063Z,30.91
2023-05-07T12:01:20.366Z,30.93
2023-05-07T12:03:52.826Z,30.74
2023-05-07T12:06:25.399Z,30.75
2023-05-07T12:08:57.693Z,31.01
2023-05-07T12:11:30.089Z,31.13
2023-05-07T12:14:03.106Z,31.59
2023-05-07T12:16:36.558Z,31.42
2023-05-07T12:19:10.169Z,31.62
2023-05-07T12:21:43.077Z,31.36
2023-05-07T12:24:16.431Z,31.68
2023-05-07T12:26:49.073Z,31.60
2023-05-07T12:29:25.493Z,31.70
2023-05-07T12:31:58.023Z,31.72
2023-05-07T12:34:30.427Z,31.54
2023-05-07T12:37:05.927Z,31.51
2023-05-07T12:39:36.405Z,31.90
2023-05-07T12:42:08.888Z,31.90
2023-05-07T12:44:41.523Z,31.89
2023-05-07T12:47:16.101Z,31.86
2023-05-07T12:49:49.260Z,31.86
2023-05-07T12:52:22.705Z,31.99
2023-05-07T12:54:54.921Z,32.11
2023-05-07T12:57:27.488Z,32.05
2023-05-07T13:00:01.854Z,32.33
2023-05-07T13:02:40.112Z,32.41
2023-05-07T13:05:13.084Z,32.72
2023-05-07T13:07:56.815Z,32.68
2023-05-07T13:10:29.803Z,32.27
2023-05-07T13:13:02.258Z,32.67
2023-05-07T13:15:34.653Z,32.51
2023-05-07T13:18:07.486Z,32.76
2023-05-07T13:20:39.996Z,32.82
2023-05-07T13:23:12.166Z,32.75
2023-05-07T13:25:44.510Z,32.85
2023-05-07T13:28:16.887Z,33.01
2023-05-07T13:30:49.299Z,32.89
2023-05-07T13:33:21.929Z,32.82
2023-05-07T13:35:54.057Z,33.01
2023-05-07T13:38:26.308Z,33.15
2023-05-07T13:40:58.639Z,33.21
2023-05-07T13:43:30.853Z,33.26
2023-05-07T13:46:03.371Z,33.21
2023-05-07T13:48:35.882Z,33.19
2023-05-07T13:51:08.472Z,33.42
2023-05-07T13:53:40.885Z,33.29
2023-05-07T13:56:15.622Z,33.46
2023-05-07T13:58:59.005Z,33.28
2023-05-07T14:01:33.373Z,33.29
2023-05-07T14:04:06.121Z,33.37
2023-05-07T14:06:38.546Z,33.63
2023-05-07T14:09:13.395Z,33.52
2023-05-07T14:11:45.657Z,33.51
2023-05-07T14:14:18.065Z,33.50
2023-05-07T14:16:51.051Z,33.75
2023-05-07T14:19:25.682Z,33.72
2023-05-07T14:21:59.398Z,33.76
2023-05-07T14:24:38.264Z,33.71
2023-05-07T14:27:11.229Z,33.61
2023-05-07T14:29:44.213Z,33.86
2023-05-07T14:32:16.582Z,33.80
2023-05-07T14:34:49.266Z,33.80
2023-05-07T14:37:21.677Z,33.94
2023-05-07T14:39:54.050Z,33.81
2023-05-07T14:42:26.550Z,33.89
2023-05-07T14:44:58.819Z,33.94
2023-05-07T14:47:30.946Z,33.91
2023-05-07T14:50:03.445Z,33.96
2023-05-07T14:52:35.679Z,34.12
2023-05-07T14:55:09.740Z,33.98
2023-05-07T14:57:42.935Z,34.16
2023-05-07T15:00:16.823Z,34.15
2023-05-07T15:02:49.085Z,34.05
2023-05-07T15:05:21.635Z,34.19
2023-05-07T15:07:57.491Z,34.24
2023-05-07T15:10:30.210Z,34.48
2023-05-07T15:13:02.647Z,34.38
2023-05-07T15:15:35.046Z,34.47
2023-05-07T15:18:07.448Z,34.48
2023-05-07T15:20:40.585Z,34.38
2023-05-07T15:23:15.161Z,34.37
2023-05-07T15:25:49.689Z,34.60
2023-05-07T15:28:25.542Z,34.66
2023-05-07T15:30:57.897Z,34.63
2023-05-07T15:33:30.122Z,34.73
2023-05-07T15:36:04.168Z,34.71
2023-05-07T15:38:36.723Z,34.72
2023-05-07T15:41:10.964Z,34.70
2023-05-07T15:43:49.354Z,34.91
2023-05-07T15:46:24.700Z,34.87
2023-05-07T15:48:57.892Z,34.87
2023-05-07T15:51:31.982Z,34.96
2023-05-07T15:54:07.869Z,34.90
2023-05-07T15:56:40.106Z,34.88
2023-05-07T15:59:13.146Z,34.99
2023-05-07T16:01:45.897Z,35.01
2023-05-07T16:04:18.478Z,35.19
2023-05-07T16:06:50.680Z,35.10
2023-05-07T16:09:25.277Z,35.20
2023-05-07T16:11:57.655Z,35.13
2023-05-07T16:14:30.174Z,35.24
2023-05-07T16:17:04.928Z,35.32
2023-05-07T16:19:40.271Z,35.45
2023-05-07T16:22:13.592Z,35.54
2023-05-07T16:24:46.561Z,35.46
2023-05-07T16:27:18.974Z,35.50
2023-05-07T16:29:51.214Z,35.56
2023-05-07T16:32:23.597Z,35.55
2023-05-07T16:34:55.793Z,35.63
2023-05-07T16:37:28.167Z,35.60
2023-05-07T16:40:07.195Z,35.66
2023-05-07T16:42:39.561Z,35.74
2023-05-07T16:45:13.610Z,35.73
2023-05-07T16:47:46.231Z,35.74
2023-05-07T16:50:18.542Z,35.86
2023-05-07T16:52:50.900Z,35.84
2023-05-07T16:55:23.503Z,35.92
2023-05-07T16:57:55.847Z,36.08
2023-05-07T17:00:34.769Z,35.90
2023-05-07T17:03:14.874Z,35.98
2023-05-07T17:05:47.609Z,35.99
2023-05-07T17:08:19.849Z,36.09
2023-05-07T17:10:52.390Z,36.15
2023-05-07T17:13:24.831Z,36.17
2023-05-07T17:15:57.261Z,36.34
2023-05-07T17:18:50.586Z,36.36
2023-05-07T17:21:33.131Z,36.42
2023-05-07T17:24:07.589Z,36.38
2023-05-07T17:26:43.961Z,36.52
2023-05-07T17:29:16.486Z,36.65
2023-05-07T17:31:48.927Z,36.72
2023-05-07T17:34:21.535Z,36.82
2023-05-07T17:36:54.855Z,37.00
2023-05-07T17:39:27.376Z,36.79
2023-05-07T17:41:59.646Z,37.05
2023-05-07T17:44:31.799Z,37.15
2023-05-07T17:47:04.346Z,37.17
2023-05-07T17:49:37.390Z,37.30
2023-05-07T17:52:09.992Z,37.48
2023-05-07T17:54:42.529Z,37.48
2023-05-07T17:57:14.669Z,37.54
2023-05-07T17:59:47.126Z,37.71
2023-05-07T18:02:19.847Z,37.74
2023-05-07T18:04:52.285Z,37.81
2023-05-07T18:07:24.598Z,38.03
2023-05-07T18:09:56.741Z,37.88
2023-05-07T18:12:29.007Z,38.07
2023-05-07T18:15:01.137Z,38.00
2023-05-07T18:17:33.575Z,38.29
2023-05-07T18:20:09.133Z,38.35
2023-05-07T18:22:41.740Z,38.38
2023-05-07T18:25:13.954Z,38.42
2023-05-07T18:27:46.292Z,38.43
2023-05-07T18:30:18.808Z,38.38
2023-05-07T18:32:51.191Z,38.85
2023-05-07T18:35:25.097Z,38.84
2023-05-07T18:37:57.432Z,38.66
2023-05-07T18:40:30.198Z,38.84
2023-05-07T18:43:07.020Z,39.07
2023-05-07T18:45:39.854Z,39.01
2023-05-07T18:48:12.314Z,39.12
2023-05-07T18:50:46.268Z,39.08
2023-05-07T18:53:18.566Z,39.14
2023-05-07T18:55:54.214Z,39.46
2023-05-07T18:58:26.426Z,39.47
2023-05-07T19:00:58.828Z,39.39
2023-05-07T19:03:31.120Z,39.71
2023-05-07T19:06:05.552Z,39.65
2023-05-07T19:08:37.792Z,39.56
2023-05-07T19:11:10.181Z,39.62
2023-05-07T19:13:42.219Z,39.86
2023-05-07T19:16:14.527Z,39.85
2023-05-07T19:18:46.821Z,39.95
2023-05-07T19:21:19.056Z,39.99
2023-05-07T19:23:53.797Z,40.25
2023-05-07T19:26:26.781Z,40.03
2023-05-07T19:29:12.452Z,40.32
2023-05-07T19:31:49.942Z,40.28
2023-05-07T19:34:22.144Z,40.56
2023-05-07T19:36:54.326Z,40.57
2023-05-07T19:39:26.659Z,40.63
2023-05-07T19:41:59.248Z,40.64
2023-05-07T19:44:31.531Z,40.88
2023-05-07T19:47:05.772Z,40.59
2023-05-07T19:49:38.189Z,40.74
2023-05-07T19:52:10.388Z,40.88
2023-05-07T19:54:42.753Z,40.86
2023-05-07T19:57:15.505Z,40.81
2023-05-07T19:59:49.283Z,40.98
2023-05-07T20:02:22.004Z,41.10
2023-05-07T20:04:55.282Z,41.04
2023-05-07T20:07:28.094Z,41.19
2023-05-07T20:10:00.544Z,41.25
2023-05-07T20:12:32.838Z,41.00
2023-05-07T20:15:05.110Z,41.31
2023-05-07T20:17:37.367Z,41.34
2023-05-07T20:20:11.870Z,41.42
2023-05-07T20:22:44.093Z,41.58
2023-05-07T20:25:16.348Z,41.39
2023-05-07T20:27:48.757Z,41.62
2023-05-07T20:30:23.829Z,41.55
2023-05-07T20:32:56.242Z,41.50
2023-05-07T20:35:28.822Z,41.61
2023-05-07T20:38:01.149Z,41.62
2023-05-07T20:40:37.189Z,41.68
2023-05-07T20:43:09.642Z,41.96
2023-05-07T20:45:42.011Z,42.08
2023-05-07T20:48:14.724Z,42.19
2023-05-07T20:50:47.025Z,42.12
2023-05-07T20:53:19.265Z,41.96
2023-05-07T20:55:51.625Z,41.98
2023-05-07T20:58:25.382Z,42.32
2023-05-07T21:00:57.870Z,42.17
2023-05-07T21:03:30.314Z,42.19
2023-05-07T21:06:03.213Z,42.24
2023-05-07T21:08:35.827Z,42.24
2023-05-07T21:11:09.952Z,42.16
2023-05-07T21:13:42.308Z,42.44
2023-05-07T21:16:14.685Z,42.45
2023-05-07T21:18:46.871Z,42.63
2023-05-07T21:21:19.315Z,42.64
2023-05-07T21:23:53.487Z,42.79
2023-05-07T21:26:26.352Z,42.70
2023-05-07T21:28:58.648Z,42.97
2023-05-07T21:31:31.098Z,42.81
2023-05-07T21:34:03.657Z,43.21
2023-05-07T21:36:36.133Z,43.18
2023-05-07T21:39:09.165Z,43.20
2023-05-07T21:41:41.359Z,43.29
2023-05-07T21:44:13.531Z,43.32
2023-05-07T21:46:45.898Z,43.34
2023-05-07T21:49:18.149Z,43.62
2023-05-07T21:51:50.107Z,43.54
2023-05-07T21:54:22.309Z,43.65
2023-05-07T21:56:54.666Z,43.68
2023-05-07T21:59:27.104Z,43.76
2023-05-07T22:01:59.438Z,43.83
2023-05-07T22:04:31.618Z,44.17
2023-05-07T22:07:03.899Z,44.33
2023-05-07T22:09:36.300Z,44.27
2023-05-07T22:12:08.854Z,44.34
2023-05-07T22:14:41.044Z,44.33
2023-05-07T22:17:13.167Z,44.59
2023-05-07T22:19:45.415Z,44.51
2023-05-07T22:22:19.238Z,44.64
2023-05-07T22:24:51.516Z,44.77
2023-05-07T22:27:23.773Z,44.84
2023-05-07T22:29:57.108Z,44.90
2023-05-07T22:32:29.474Z,45.09
2023-05-07T22:35:01.620Z,45.17
2023-05-07T22:37:33.727Z,45.17
2023-05-07T22:40:07.332Z,45.31
2023-05-07T22:42:39.714Z,45.34
2023-05-07T22:45:13.590Z,45.50
2023-05-07T22:47:46.034Z,45.52
2023-05-07T22:50:18.711Z,45.65
2023-05-07T22:52:51.816Z,45.63
2023-05-07T22:55:24.238Z,45.67
2023-05-07T22:57:56.588Z,45.73
2023-05-07T23:00:29.117Z,45.77
2023-05-07T23:03:01.586Z,45.94
2023-05-07T23:05:33.886Z,45.93
2023-05-07T23:08:06.338Z,45.97
2023-05-07T23:10:38.586Z,46.07
2023-05-07T23:13:17.254Z,46.09
2023-05-07T23:15:50.880Z,46.30
2023-05-07T23:18:23.151Z,46.29
2023-05-07T23:20:55.331Z,46.39
2023-05-07T23:23:33.518Z,46.43
2023-05-07T23:26:05.656Z,46.39
2023-05-07T23:28:37.789Z,46.37
2023-05-07T23:31:12.905Z,46.57
2023-05-07T23:33:45.073Z,46.61
2023-05-07T23:36:17.234Z,46.63
2023-05-07T23:38:49.592Z,46.69
2023-05-07T23:41:21.590Z,46.72
2023-05-07T23:43:53.979Z,46.73
2023-05-07T23:46:26.969Z,46.87
2023-05-07T23:48:59.141Z,46.82
2023-05-07T23:51:31.597Z,46.81
2023-05-07T23:54:03.993Z,46.73
2023-05-07T23:56:36.080Z,46.81
2023-05-07T23:59:08.653Z,46.87
